Time;durP1;ratioP1;P1;durP2;ratioP2;P2;SDS_P1;SDS_P2;PMS_P1;PMS_P2;Temp;Humidity;BMP_temperature;BMP_pressure;BME280_temperature;BME280_humidity;BME280_pressure;Samples;Min_cycle;Max_cycle;Signal;HPM_P1;HPM_P2
2022/07/11 00:02:21;;;;;;;1.40;1.02;;;;;;;16.04;58.17;97320.44;4960296;29;20052;-80
2022/07/11 00:04:50;;;;;;;1.55;1.05;;;;;;;16.08;55.34;97312.19;4960203;28;20075;-79
2022/07/11 00:07:22;;;;;;;1.90;0.80;;;;;;;16.12;56.97;97318.66;4960043;28;20039;-80
2022/07/11 00:09:51;;;;;;;1.48;1.00;;;;;;;16.14;56.90;97316.66;4959662;29;20080;-80
2022/07/11 00:12:21;;;;;;;2.85;0.95;;;;;;;16.15;56.70;97318.25;4960095;29;20060;-80
2022/07/11 00:14:50;;;;;;;2.22;0.90;;;;;;;16.19;55.92;97319.50;4960297;28;20047;-79
2022/07/11 00:17:21;;;;;;;2.70;1.10;;;;;;;16.20;55.17;97314.03;4959761;28;20072;-80
2022/07/11 00:19:52;;;;;;;2.60;1.05;;;;;;;16.19;54.71;97314.22;4959963;29;20066;-80
2022/07/11 00:22:22;;;;;;;1.92;1.17;;;;;;;16.14;54.30;97314.03;4959604;28;20054;-80
2022/07/11 00:24:51;;;;;;;3.30;1.30;;;;;;;16.11;54.36;97319.66;4960126;29;20056;-80
2022/07/11 00:27:22;;;;;;;1.67;0.90;;;;;;;16.09;54.19;97316.41;4959490;28;20074;-80
2022/07/11 00:29:54;;;;;;;3.03;1.23;;;;;;;16.01;54.48;97318.22;4959507;28;20078;-80
2022/07/11 00:32:30;;;;;;;2.53;1.23;;;;;;;15.97;54.74;97316.19;4959802;29;20032;-80
2022/07/11 00:35:03;;;;;;;2.53;1.02;;;;;;;15.93;54.71;97309.69;4959373;28;20055;-79
2022/07/11 00:37:32;;;;;;;4.30;1.25;;;;;;;15.90;54.58;97316.19;4959194;28;20032;-80
2022/07/11 00:40:01;;;;;;;2.42;1.15;;;;;;;15.85;54.69;97308.03;4959195;29;20055;-80
2022/07/11 00:42:29;;;;;;;3.35;1.20;;;;;;;15.86;54.80;97309.69;4959562;29;20102;-80
2022/07/11 00:45:04;;;;;;;1.47;1.03;;;;;;;15.93;56.21;97307.88;4958738;29;20059;-80
2022/07/11 00:47:36;;;;;;;2.80;0.98;;;;;;;15.94;55.09;97304.25;4959344;29;20079;-80
2022/07/11 00:50:06;;;;;;;3.33;1.02;;;;;;;15.91;54.83;97299.38;4958996;29;20048;-80
2022/07/11 00:52:35;;;;;;;2.13;1.20;;;;;;;15.88;55.04;97306.88;4959465;28;20053;-80
2022/07/11 00:55:08;;;;;;;2.70;1.17;;;;;;;15.81;55.35;97294.50;4961017;28;20031;-79
2022/07/11 00:57:38;;;;;;;3.85;1.10;;;;;;;15.78;55.26;97296.69;4961034;28;20277;-80
2022/07/11 01:00:11;;;;;;;2.13;0.95;;;;;;;15.75;55.73;97297.91;4960078;28;20051;-80
2022/07/11 01:02:42;;;;;;;2.00;1.25;;;;;;;15.75;55.84;97284.75;4959043;29;20072;-80
2022/07/11 01:05:17;;;;;;;1.80;0.85;;;;;;;15.84;58.48;97290.66;4959238;28;20050;-80
2022/07/11 01:07:48;;;;;;;2.75;1.10;;;;;;;15.92;57.50;97289.66;4959356;29;20051;-80
2022/07/11 01:10:23;;;;;;;2.42;1.17;;;;;;;15.99;57.68;97293.94;4958788;29;20086;-80
2022/07/11 01:12:54;;;;;;;2.72;1.33;;;;;;;15.97;55.78;97289.88;4960064;28;20044;-80
2022/07/11 01:15:28;;;;;;;3.65;1.30;;;;;;;15.96;55.95;97291.72;4960864;28;20052;-80
2022/07/11 01:17:58;;;;;;;2.30;1.20;;;;;;;16.00;56.20;97287.66;4959403;28;20070;-79
2022/07/11 01:20:29;;;;;;;1.45;0.73;;;;;;;16.01;55.79;97285.84;4958512;29;20079;-80
2022/07/11 01:23:04;;;;;;;1.77;1.15;;;;;;;16.01;55.53;97291.13;4958940;29;20050;-80
2022/07/11 01:25:35;;;;;;;1.13;0.90;;;;;;;16.01;56.64;97297.19;4958959;29;20059;-80
2022/07/11 01:28:06;;;;;;;2.67;1.20;;;;;;;16.04;55.80;97291.50;4959422;28;20050;-80
2022/07/11 01:30:39;;;;;;;;;;;;;;;16.06;56.95;97286.84;4962557;29;20288;-78
2022/07/11 01:33:08;;;;;;;1.33;0.85;;;;;;;16.05;55.35;97290.50;4962792;29;19922;-80
2022/07/11 01:35:38;;;;;;;1.55;0.90;;;;;;;16.08;56.99;97283.22;4962935;28;20051;-80
2022/07/11 01:38:08;;;;;;;1.20;1.05;;;;;;;16.14;56.80;97290.34;4962722;29;20060;-81
2022/07/11 01:40:39;;;;;;;1.97;1.13;;;;;;;16.15;57.73;97281.41;4962291;29;20497;-79
2022/07/11 01:43:08;;;;;;;1.92;1.15;;;;;;;16.15;55.95;97281.41;4962439;29;20314;-79
2022/07/11 01:45:39;;;;;;;2.58;1.10;;;;;;;16.14;56.30;97279.81;4962831;29;20111;-80
2022/07/11 01:48:10;;;;;;;2.45;1.67;;;;;;;16.13;55.84;97278.16;4962388;29;20120;-80
2022/07/11 01:50:39;;;;;;;2.83;0.93;;;;;;;16.10;56.70;97282.00;4962525;29;20040;-80
2022/07/11 01:53:13;;;;;;;1.10;1.00;;;;;;;16.15;57.08;97276.94;4962363;29;20038;-80
2022/07/11 01:55:42;;;;;;;3.40;1.10;;;;;;;16.20;56.13;97276.34;4962125;29;20111;-80
2022/07/11 01:58:33;;;;;;;3.72;1.48;;;;;;;16.19;55.88;97278.19;4962240;29;20074;-79
2022/07/11 02:01:12;;;;;;;2.05;1.45;;;;;;;16.16;55.89;97267.22;4962077;29;20050;-80
2022/07/11 02:03:43;;;;;;;3.13;1.30;;;;;;;16.21;56.65;97268.25;4962404;28;20039;-80
2022/07/11 02:06:13;;;;;;;1.48;1.30;;;;;;;16.21;55.88;97275.34;4962197;29;20085;-80
2022/07/11 02:08:46;;;;;;;2.95;1.30;;;;;;;16.19;55.82;97264.22;4962893;28;20070;-80
2022/07/11 02:11:16;;;;;;;4.45;1.90;;;;;;;16.17;55.88;97272.28;4962126;29;20052;-80
2022/07/11 02:13:44;;;;;;;3.60;2.03;;;;;;;16.14;55.88;97264.81;4962390;28;20062;-80
2022/07/11 02:16:14;;;;;;;2.58;1.38;;;;;;;16.09;55.98;97266.41;4962448;29;20047;-80
2022/07/11 02:18:43;;;;;;;3.58;1.23;;;;;;;16.03;56.44;97266.22;4962081;29;20046;-80
2022/07/11 02:21:12;;;;;;;5.32;1.52;;;;;;;15.99;56.41;97270.25;4961713;28;20082;-79
2022/07/11 02:23:42;;;;;;;3.67;1.55;;;;;;;15.95;56.73;97269.03;4961720;29;20059;-80
2022/07/11 02:26:18;;;;;;;4.25;2.00;;;;;;;15.93;56.90;97271.03;4961488;29;20048;-80
2022/07/11 02:28:47;;;;;;;3.95;1.58;;;;;;;15.93;56.95;97270.25;4961747;29;20055;-80
2022/07/11 02:31:16;;;;;;;5.03;1.65;;;;;;;15.91;57.09;97259.91;4961136;29;20075;-80
2022/07/11 02:33:44;;;;;;;4.25;1.58;;;;;;;15.97;57.50;97264.38;4960937;29;20048;-80
2022/07/11 02:36:13;;;;;;;1.75;1.20;;;;;;;16.01;59.07;97265.59;4961121;29;20071;-79
2022/07/11 02:38:46;;;;;;;3.75;1.75;;;;;;;16.08;59.19;97265.59;4961116;29;20083;-80
2022/07/11 02:41:14;;;;;;;1.63;1.50;;;;;;;16.11;57.62;97265.19;4956789;29;20063;-80
2022/07/11 02:43:43;;;;;;;2.50;1.50;;;;;;;16.09;57.29;97267.22;4952000;29;20052;-80
2022/07/11 02:46:12;;;;;;;3.53;1.48;;;;;;;16.08;57.54;97268.25;4953151;29;20051;-80
2022/07/11 02:48:40;;;;;;;4.15;1.60;;;;;;;16.08;57.77;97264.81;4952253;29;20075;-80
2022/07/11 02:51:08;;;;;;;3.22;1.63;;;;;;;16.06;57.76;97262.38;4953163;29;20052;-79
2022/07/11 02:53:35;;;;;;;3.65;1.30;;;;;;;16.06;57.74;97262.38;4952254;29;20062;-80
2022/07/11 02:56:03;;;;;;;2.78;1.40;;;;;;;16.06;57.82;97259.72;4951875;29;20084;-79
2022/07/11 02:58:31;;;;;;;2.70;1.30;;;;;;;16.07;57.68;97264.00;4953459;29;20056;-80
2022/07/11 03:01:00;;;;;;;2.83;1.30;;;;;;;16.13;59.18;97267.63;4952349;29;20128;-80
2022/07/11 03:03:29;;;;;;;2.88;1.35;;;;;;;16.21;60.48;97259.56;4971069;23;20043;-80
2022/07/11 03:05:57;;;;;;;2.35;1.50;;;;;;;16.28;59.96;97265.63;4944593;29;20058;-77
2022/07/11 03:08:24;;;;;;;3.03;1.58;;;;;;;16.32;60.47;97263.41;4944757;29;20054;-79
2022/07/11 03:10:52;;;;;;;2.67;0.90;;;;;;;16.37;60.29;97267.03;4944644;29;20083;-79
2022/07/11 03:13:19;;;;;;;5.50;1.92;;;;;;;16.37;58.34;97261.78;4940782;29;20502;-77
2022/07/11 03:15:47;;;;;;;1.83;1.33;;;;;;;16.38;59.60;97268.69;4940764;29;20070;-77
2022/07/11 03:18:16;;;;;;;2.00;1.27;;;;;;;16.43;60.74;97275.97;4941339;29;20059;-79
2022/07/11 03:20:43;;;;;;;1.42;1.33;;;;;;;16.45;61.19;97266.84;4940922;29;20059;-77
2022/07/11 03:23:11;;;;;;;3.30;1.30;;;;;;;16.50;59.87;97270.72;4941790;29;20102;-78
2022/07/11 03:25:39;;;;;;;4.43;1.65;;;;;;;16.49;58.19;97269.91;4941802;29;20079;-82
2022/07/11 03:28:06;;;;;;;4.38;1.80;;;;;;;16.44;57.43;97265.25;4943911;29;20087;-83
2022/07/11 03:30:34;;;;;;;1.88;1.23;;;;;;;16.45;60.13;97272.13;4943480;29;20055;-79
2022/07/11 03:33:01;;;;;;;2.17;1.20;;;;;;;16.50;60.53;97273.34;4942054;29;20463;-77
2022/07/11 03:35:43;;;;;;;3.28;1.33;;;;;;;16.52;59.60;97271.31;4941604;29;20442;-77
2022/07/11 03:38:11;;;;;;;5.10;1.58;;;;;;;16.53;58.16;97271.13;4939570;29;20086;-78
2022/07/11 03:40:40;;;;;;;2.55;1.60;;;;;;;16.53;58.54;97268.50;4938811;29;20111;-79
2022/07/11 03:43:08;;;;;;;3.28;1.48;;;;;;;16.56;60.66;97273.34;4939320;29;20066;-79
2022/07/11 03:45:36;;;;;;;3.15;1.60;;;;;;;16.57;59.26;97272.31;4939313;29;20118;-80
2022/07/11 03:48:04;;;;;;;2.90;1.20;;;;;;;16.58;60.05;97268.69;4940045;29;20094;-79
2022/07/11 03:50:34;;;;;;;4.30;1.30;;;;;;;16.61;59.95;97265.63;4939842;29;20052;-77
2022/07/11 03:53:02;;;;;;;2.35;1.50;;;;;;;16.62;58.95;97263.81;4940271;29;20111;-77
2022/07/11 03:55:30;;;;;;;2.50;1.15;;;;;;;16.63;59.28;97268.88;4944469;29;20055;-78
2022/07/11 03:57:58;;;;;;;2.10;1.70;;;;;;;16.63;59.81;97268.06;4940153;29;20051;-76
2022/07/11 04:00:26;;;;;;;2.25;1.33;;;;;;;16.63;57.85;97265.44;4940391;29;20079;-78
2022/07/11 04:02:54;;;;;;;1.70;1.33;;;;;;;16.64;58.67;97264.44;4940914;29;20557;-79
2022/07/11 04:05:21;;;;;;;2.63;1.40;;;;;;;16.66;58.18;97272.91;4941238;29;20052;-77
2022/07/11 04:07:51;;;;;;;2.78;1.30;;;;;;;16.64;57.25;97277.59;4940591;29;20090;-76
2022/07/11 04:10:18;;;;;;;2.83;1.35;;;;;;;16.63;58.05;97274.13;4940301;29;20048;-78
2022/07/11 04:12:46;;;;;;;1.58;1.48;;;;;;;16.63;57.86;97270.69;4940857;29;20055;-76
2022/07/11 04:15:13;;;;;;;3.40;1.35;;;;;;;16.65;58.54;97279.22;4940731;29;20075;-78
2022/07/11 04:17:41;;;;;;;1.73;1.15;;;;;;;16.65;58.25;97276.56;4941157;29;20052;-77
2022/07/11 04:20:09;;;;;;;4.13;1.65;;;;;;;16.67;58.43;97275.34;4940894;29;20131;-75
2022/07/11 04:22:37;;;;;;;1.52;1.20;;;;;;;16.67;58.20;97274.56;4940710;29;20075;-77
2022/07/11 04:25:07;;;;;;;2.22;1.50;;;;;;;16.68;58.59;97278.78;4942195;29;20083;-76
2022/07/11 04:27:34;;;;;;;1.00;1.00;;;;;;;16.69;57.98;97278.59;4941813;29;20051;-77
2022/07/11 04:30:08;;;;;;;2.05;1.27;;;;;;;16.70;58.09;97279.41;4941379;29;20094;-77
2022/07/11 04:32:36;;;;;;;1.70;1.05;;;;;;;16.74;57.99;97282.44;4941223;29;20051;-78
2022/07/11 04:35:04;;;;;;;1.95;0.90;;;;;;;16.72;56.83;97274.75;4941547;29;20569;-77
2022/07/11 04:37:32;;;;;;;1.40;1.20;;;;;;;16.72;58.65;97276.56;4941362;29;20052;-78
2022/07/11 04:40:00;;;;;;;1.27;1.02;;;;;;;16.73;58.10;97284.28;4941803;29;20106;-77
2022/07/11 04:42:28;;;;;;;3.25;1.75;;;;;;;16.74;59.25;97275.34;4940927;29;20497;-76
2022/07/11 04:44:56;;;;;;;2.60;1.33;;;;;;;16.74;57.32;97285.88;4940966;29;20060;-77
2022/07/11 04:47:23;;;;;;;1.88;1.30;;;;;;;16.75;58.06;97287.53;4940817;29;20126;-77
2022/07/11 04:49:51;;;;;;;2.30;1.27;;;;;;;16.77;57.48;97276.75;4941018;29;20047;-78
2022/07/11 04:52:19;;;;;;;2.40;1.20;;;;;;;16.78;58.33;97276.56;4940974;29;20489;-78
2022/07/11 04:54:46;;;;;;;1.42;0.98;;;;;;;16.80;59.21;97279.84;4940932;29;20078;-78
2022/07/11 04:57:14;;;;;;;5.07;1.40;;;;;;;16.82;59.11;97277.81;4941357;29;20462;-76
2022/07/11 04:59:43;;;;;;;2.75;1.20;;;;;;;16.85;60.13;97284.50;4940830;29;20514;-77
2022/07/11 05:02:10;;;;;;;4.65;1.35;;;;;;;16.82;57.25;97282.28;4941179;29;20156;-78
2022/07/11 05:04:38;;;;;;;1.55;1.25;;;;;;;16.81;60.35;97281.44;4935854;29;20048;-77
2022/07/11 05:07:06;;;;;;;6.93;1.85;;;;;;;16.85;60.22;97285.28;4923218;29;20054;-77
2022/07/11 05:09:34;;;;;;;5.80;2.17;;;;;;;16.86;58.81;97279.03;4922317;29;20087;-79
2022/07/11 05:12:02;;;;;;;19.15;13.13;;;;;;;16.85;57.81;97282.66;4921078;29;20052;-77
2022/07/11 05:14:29;;;;;;;8.32;4.70;;;;;;;16.83;57.98;97284.69;4922350;29;20072;-79
2022/07/11 05:16:58;;;;;;;4.45;2.05;;;;;;;16.84;59.84;97281.06;4936291;29;20055;-80
2022/07/11 05:19:26;;;;;;;3.30;1.52;;;;;;;16.86;58.88;97279.03;4940434;29;20054;-78
2022/07/11 05:21:53;;;;;;;4.93;1.50;;;;;;;16.86;57.57;97279.03;4940112;29;20589;-77
2022/07/11 05:24:21;;;;;;;2.58;1.40;;;;;;;16.83;57.70;97284.69;4940643;29;20044;-77
2022/07/11 05:26:48;;;;;;;1.85;1.08;;;;;;;16.83;57.53;97278.63;4940381;29;20441;-76
2022/07/11 05:29:16;;;;;;;2.35;1.33;;;;;;;16.80;56.89;97282.47;4938386;29;20104;-79
2022/07/11 05:31:50;;;;;;;5.57;1.90;;;;;;;16.77;56.36;97280.22;4934547;29;20047;-80
2022/07/11 05:34:19;;;;;;;1.10;0.95;;;;;;;16.78;59.28;97286.31;4929776;29;20052;-78
2022/07/11 05:36:48;;;;;;;2.30;1.45;;;;;;;16.78;57.25;97281.84;4936667;29;20494;-77
2022/07/11 05:39:16;;;;;;;3.05;1.38;;;;;;;16.79;57.15;97283.47;4923839;29;20071;-77
2022/07/11 05:41:43;;;;;;;4.32;1.88;;;;;;;16.79;56.92;97285.28;4932742;29;20075;-78
2022/07/11 05:44:11;;;;;;;2.00;1.30;;;;;;;16.80;57.83;97286.94;4938695;29;20130;-79
2022/07/11 05:46:39;;;;;;;4.10;1.50;;;;;;;16.83;57.21;97294.41;4938608;29;20055;-77
2022/07/11 05:49:08;;;;;;;2.40;1.40;;;;;;;16.86;58.75;97294.84;4939033;29;20052;-77
2022/07/11 05:51:37;;;;;;;1.70;1.20;;;;;;;16.90;57.93;97295.22;4938074;29;20055;-78
2022/07/11 05:54:04;;;;;;;2.88;1.15;;;;;;;16.93;58.03;97301.94;4938231;29;20149;-78
2022/07/11 05:56:32;;;;;;;2.47;1.25;;;;;;;16.96;57.88;97296.22;4938912;29;20106;-78
2022/07/11 05:59:00;;;;;;;3.38;1.33;;;;;;;16.98;58.23;97281.84;4937789;29;20503;-79
2022/07/11 06:01:31;;;;;;;2.30;1.42;;;;;;;17.02;58.11;97292.78;4938190;29;20060;-79
2022/07/11 06:04:03;;;;;;;1.90;1.23;;;;;;;17.03;57.53;97289.13;4938186;29;20054;-78
2022/07/11 06:06:31;;;;;;;4.72;1.23;;;;;;;17.04;57.40;97296.03;4939807;29;20695;-80
2022/07/11 06:09:00;;;;;;;2.00;1.40;;;;;;;17.05;57.16;97292.38;4946085;29;20055;-78
2022/07/11 06:11:28;;;;;;;1.40;1.30;;;;;;;17.05;57.26;97292.38;4945801;29;20079;-80
2022/07/11 06:13:56;;;;;;;2.53;1.60;;;;;;;17.04;57.44;97296.84;4942052;29;20079;-76
2022/07/11 06:16:27;;;;;;;2.07;1.00;;;;;;;17.06;58.15;97294.81;4938372;29;20055;-77
2022/07/11 06:18:55;;;;;;;3.88;1.35;;;;;;;17.10;58.60;97295.22;4929715;29;20079;-78
2022/07/11 06:21:23;;;;;;;1.98;1.40;;;;;;;17.14;59.50;97292.94;4939242;29;20052;-77
2022/07/11 06:23:51;;;;;;;3.05;1.50;;;;;;;17.17;58.68;97300.47;4929111;29;20103;-76
2022/07/11 06:26:20;;;;;;;8.20;2.03;;;;;;;17.17;58.78;97296.00;4935604;29;20139;-76
2022/07/11 06:28:48;;;;;;;2.88;1.40;;;;;;;17.18;59.15;97297.59;4923842;29;20511;-76
2022/07/11 06:31:16;;;;;;;8.40;2.28;;;;;;;17.20;59.12;97295.56;4938460;29;20052;-77
2022/07/11 06:33:44;;;;;;;3.28;1.30;;;;;;;17.21;59.02;97291.94;4925322;29;20043;-76
2022/07/11 06:36:12;;;;;;;3.13;1.60;;;;;;;17.24;58.05;97296.78;4940469;29;20087;-74
2022/07/11 06:38:40;;;;;;;2.03;1.27;;;;;;;17.27;59.46;97301.66;4941024;29;20060;-78
2022/07/11 06:41:08;;;;;;;3.33;1.38;;;;;;;17.32;58.88;97302.84;4938930;29;20051;-76
2022/07/11 06:43:37;;;;;;;1.60;1.50;;;;;;;17.32;59.21;97298.41;4933903;29;20119;-77
2022/07/11 06:46:06;;;;;;;4.20;1.40;;;;;;;17.33;58.18;97300.00;4940147;29;20052;-79
2022/07/11 06:48:33;;;;;;;3.85;1.45;;;;;;;17.37;58.33;97303.03;4931634;29;20071;-80
2022/07/11 06:51:01;;;;;;;5.25;2.20;;;;;;;17.41;58.22;97296.34;4938228;29;20471;-78
2022/07/11 06:53:33;;;;;;;2.97;1.47;;;;;;;17.46;58.27;97296.53;4944689;29;20123;-77
2022/07/11 06:56:00;;;;;;;2.75;1.55;;;;;;;17.51;58.82;97296.69;4947014;29;20088;-79
2022/07/11 06:58:34;;;;;;;1.48;1.45;;;;;;;17.54;58.90;97300.78;4948274;29;20055;-81
2022/07/11 07:01:05;;;;;;;3.95;1.60;;;;;;;17.57;58.64;97301.13;4949009;29;20051;-79
2022/07/11 07:03:34;;;;;;;3.03;1.38;;;;;;;17.62;59.08;97295.22;4945149;29;20131;-84
2022/07/11 07:06:02;;;;;;;3.28;1.85;;;;;;;17.67;59.02;97300.72;4944442;29;20052;-79
2022/07/11 07:08:30;;;;;;;4.30;1.30;;;;;;;17.71;58.83;97302.72;4945530;29;20422;-81
2022/07/11 07:10:59;;;;;;;2.70;1.65;;;;;;;17.76;58.28;97301.28;4945090;29;20075;-77
2022/07/11 07:13:34;;;;;;;3.20;1.83;;;;;;;17.77;58.86;97300.25;4927063;29;20044;-79
2022/07/11 07:16:06;;;;;;;2.60;1.48;;;;;;;17.78;58.12;97304.53;4927505;29;20052;-79
2022/07/11 07:18:34;;;;;;;2.13;1.48;;;;;;;17.80;58.10;97307.72;4943449;29;20078;-79
2022/07/11 07:21:02;;;;;;;1.30;1.20;;;;;;;17.82;58.11;97305.72;4942710;29;20051;-80
2022/07/11 07:23:29;;;;;;;3.30;1.40;;;;;;;17.83;58.27;97304.72;4942224;29;20398;-79
2022/07/11 07:25:57;;;;;;;4.28;1.10;;;;;;;17.86;58.62;97309.56;4942662;29;20048;-79
2022/07/11 07:28:28;;;;;;;2.33;1.17;;;;;;;17.89;58.36;97309.16;4941332;29;20557;-79
2022/07/11 07:30:55;;;;;;;1.70;1.30;;;;;;;17.93;58.55;97305.09;4937067;29;20097;-78
2022/07/11 07:33:24;;;;;;;5.40;1.40;;;;;;;17.99;58.57;97311.34;4937882;29;20080;-78
2022/07/11 07:36:10;;;;;;;3.70;1.13;;;;;;;18.04;58.50;97311.53;4943538;29;20048;-77
2022/07/11 07:38:39;;;;;;;2.58;1.35;;;;;;;18.07;58.71;97306.63;4937675;29;20067;-79
2022/07/11 07:41:07;;;;;;;3.88;1.48;;;;;;;18.10;58.19;97303.56;4943940;29;20062;-79
2022/07/11 07:43:34;;;;;;;4.97;1.63;;;;;;;18.12;58.64;97304.13;4932413;29;20060;-78
2022/07/11 07:46:02;;;;;;;2.30;1.52;;;;;;;18.16;58.19;97307.19;4933787;29;20466;-78
2022/07/11 07:48:31;;;;;;;3.10;1.20;;;;;;;18.18;58.31;97317.53;4931978;29;20128;-78
2022/07/11 07:51:00;;;;;;;2.33;1.10;;;;;;;18.23;58.57;97312.41;4939302;29;20066;-77
2022/07/11 07:53:28;;;;;;;1.23;0.77;;;;;;;18.28;58.24;97312.59;4941229;29;20079;-77
2022/07/11 07:55:55;;;;;;;1.25;0.85;;;;;;;18.33;58.20;97310.13;4940257;29;20056;-78
2022/07/11 07:58:23;;;;;;;1.10;1.00;;;;;;;18.37;57.88;97311.31;4940762;29;20047;-77
2022/07/11 08:03:43;;;;;;;3.25;1.60;;;;;;;18.42;58.20;97305.41;4928476;29;20054;-79
2022/07/11 08:06:10;;;;;;;2.25;1.83;;;;;;;18.47;57.86;97303.72;4940484;29;20071;-78
2022/07/11 08:08:38;;;;;;;1.25;1.15;;;;;;;18.50;57.45;97310.41;4941049;29;20055;-79
2022/07/11 08:11:05;;;;;;;1.02;0.93;;;;;;;18.52;57.24;97316.31;4942507;29;20083;-79
2022/07/11 08:13:53;;;;;;;0.95;0.95;;;;;;;18.53;57.05;97310.78;4937783;29;20094;-78
2022/07/11 08:16:21;;;;;;;1.98;1.08;;;;;;;18.57;57.43;97305.09;4938157;29;20078;-78
2022/07/11 08:18:50;;;;;;;0.95;0.90;;;;;;;18.62;58.09;97305.25;4937466;29;20047;-75
2022/07/11 08:21:18;;;;;;;1.67;1.00;;;;;;;18.64;57.02;97306.63;4932601;29;20106;-77
2022/07/11 08:23:45;;;;;;;1.13;0.80;;;;;;;18.66;56.90;97303.78;4934276;29;20489;-77
2022/07/11 08:26:13;;;;;;;1.67;0.85;;;;;;;18.67;56.63;97302.75;4944178;29;20071;-78
2022/07/11 08:28:41;;;;;;;2.67;1.00;;;;;;;18.68;56.64;97299.09;4937226;29;20465;-77
2022/07/11 08:31:08;;;;;;;1.10;1.02;;;;;;;18.69;56.37;97298.06;4923375;29;20080;-79
2022/07/11 08:33:37;;;;;;;2.05;1.20;;;;;;;18.71;56.40;97298.66;4927217;29;20044;-77
2022/07/11 08:36:07;;;;;;;1.10;1.02;;;;;;;18.73;56.31;97293.97;4937257;29;20074;-78
2022/07/11 08:38:35;;;;;;;2.42;1.10;;;;;;;18.76;56.27;97295.34;4941816;29;20406;-77
2022/07/11 08:41:03;;;;;;;2.17;0.98;;;;;;;18.80;56.41;97299.22;4941907;29;20082;-77
2022/07/11 08:43:32;;;;;;;1.10;1.00;;;;;;;18.84;56.91;97306.50;4933668;29;20474;-79
2022/07/11 08:46:01;;;;;;;1.80;1.15;;;;;;;18.88;56.35;97299.75;4926791;29;20499;-81
2022/07/11 08:48:29;;;;;;;1.23;1.10;;;;;;;18.92;56.52;97298.28;4943342;29;20059;-78
2022/07/11 08:50:57;;;;;;;4.57;1.27;;;;;;;18.97;56.36;97296.84;4945152;29;20052;-77
2022/07/11 08:53:27;;;;;;;1.13;1.10;;;;;;;18.99;56.77;97306.16;4924908;29;20052;-80
2022/07/11 08:55:54;;;;;;;2.60;1.15;;;;;;;19.03;56.22;97298.63;4940847;29;20078;-79
2022/07/11 08:58:23;;;;;;;1.05;1.05;;;;;;;19.06;56.45;97292.88;4940261;29;20071;-78
2022/07/11 09:00:51;;;;;;;1.27;1.00;;;;;;;19.10;55.72;97294.06;4941017;29;20051;-78
2022/07/11 09:03:20;;;;;;;1.30;1.20;;;;;;;19.13;56.60;97298.91;4942171;29;20079;-77
2022/07/11 09:05:47;;;;;;;8.70;1.98;;;;;;;19.20;55.95;97298.84;4941044;29;20044;-76
2022/07/11 09:08:15;;;;;;;1.20;1.10;;;;;;;19.25;55.83;97294.50;4940911;29;20080;-78
2022/07/11 09:10:47;;;;;;;1.40;1.23;;;;;;;19.33;55.69;97296.88;4939997;29;20056;-76
2022/07/11 09:13:15;;;;;;;1.40;1.30;;;;;;;19.38;55.44;97296.22;4940642;29;20055;-77
2022/07/11 09:15:45;;;;;;;1.13;1.05;;;;;;;19.45;55.29;97291.63;4934772;29;20466;-77
2022/07/11 09:18:31;;;;;;;54.20;5.75;;;;;;;19.54;55.48;97294.78;4936934;29;20055;-77
2022/07/11 09:26:36;;;;;;;0.85;0.85;;;;;;;19.72;53.93;97292.19;4938221;29;20079;-77
2022/07/11 09:29:06;;;;;;;0.80;0.80;;;;;;;19.75;53.87;97283.78;4938943;29;20090;-76
2022/07/11 09:31:36;;;;;;;1.42;1.02;;;;;;;19.79;53.66;97288.63;4940532;29;20502;-77
2022/07/11 09:34:06;;;;;;;2.63;0.93;;;;;;;19.80;53.57;97288.41;4938750;29;20049;-78
2022/07/11 09:36:38;;;;;;;0.70;0.70;;;;;;;19.83;53.58;97281.84;4938961;29;20048;-76
2022/07/11 09:39:07;;;;;;;0.98;0.75;;;;;;;19.86;53.96;97284.06;4938135;29;20141;-77
2022/07/11 09:41:37;;;;;;;1.15;1.05;;;;;;;19.88;53.17;97282.00;4937954;29;20083;-77
2022/07/11 09:44:10;;;;;;;1.52;0.93;;;;;;;19.91;53.17;97295.59;4936653;29;20091;-79
2022/07/11 09:46:38;;;;;;;0.77;0.70;;;;;;;19.95;52.98;97285.34;4938230;29;20490;-77
2022/07/11 09:49:07;;;;;;;0.63;0.52;;;;;;;20.00;52.92;97288.13;4937202;29;20052;-77
2022/07/11 09:51:35;;;;;;;1.08;0.60;;;;;;;20.05;52.70;97290.94;4940306;29;20486;-78
2022/07/11 09:54:05;;;;;;;0.68;0.68;;;;;;;20.11;52.26;97294.50;4942807;29;20055;-77
2022/07/11 09:56:36;;;;;;;0.80;0.80;;;;;;;20.15;52.46;97291.19;4942268;29;20086;-77
2022/07/11 09:59:23;;;;;;;0.85;0.70;;;;;;;20.20;52.73;97290.50;4941959;29;20059;-77
2022/07/11 10:01:51;;;;;;;0.90;0.90;;;;;;;20.23;52.35;97290.06;4939128;29;20055;-76
2022/07/11 10:04:20;;;;;;;0.95;0.82;;;;;;;20.28;52.69;97299.97;4939449;29;20044;-78
2022/07/11 10:06:47;;;;;;;0.90;0.90;;;;;;;20.31;51.96;97299.50;4939502;29;20044;-77
2022/07/11 10:09:15;;;;;;;1.20;1.00;;;;;;;20.30;51.85;97297.91;4939068;29;20048;-77
2022/07/11 10:11:45;;;;;;;0.88;0.88;;;;;;;20.32;52.69;97298.50;4935288;29;20048;-77
2022/07/11 10:14:13;;;;;;;1.50;1.10;;;;;;;20.35;52.23;97292.72;4920466;29;20075;-76
2022/07/11 10:16:51;;;;;;;1.20;1.10;;;;;;;20.37;53.40;97293.31;4921932;29;20083;-77
2022/07/11 10:19:43;;;;;;;0.90;0.90;;;;;;;20.38;51.90;97293.09;4922423;29;20094;-77
2022/07/11 10:22:34;;;;;;;0.98;0.95;;;;;;;20.38;51.97;97298.38;4922110;29;20052;-77
2022/07/11 10:25:13;;;;;;;1.98;1.08;;;;;;;20.41;52.22;97304.28;4922088;29;20091;-76
2022/07/11 10:27:59;;;;;;;3.78;1.40;;;;;;;20.46;51.92;97299.09;4922706;29;20311;-77
2022/07/11 10:30:45;;;;;;;1.75;1.25;;;;;;;20.49;51.86;97294.16;4922332;29;20108;-78
2022/07/11 10:33:14;;;;;;;3.30;1.02;;;;;;;20.55;52.04;97295.06;4922179;29;20068;-77
2022/07/11 10:35:42;;;;;;;4.25;1.10;;;;;;;20.58;51.47;97294.66;4921846;29;20101;-75
2022/07/11 10:38:10;;;;;;;2.70;1.20;;;;;;;20.64;51.49;97292.91;4938806;29;20058;-78
2022/07/11 10:40:46;;;;;;;1.10;1.00;;;;;;;20.69;51.60;97293.06;4940887;29;20111;-77
2022/07/11 10:43:16;;;;;;;1.08;0.95;;;;;;;20.71;50.73;97298.94;4940904;29;20052;-77
2022/07/11 10:45:55;;;;;;;0.88;0.82;;;;;;;20.73;50.86;97291.56;4941111;29;20091;-79
2022/07/11 10:48:23;;;;;;;1.48;1.20;;;;;;;20.76;50.71;97296.41;4940936;29;20058;-80
2022/07/11 10:51:04;;;;;;;1.60;1.02;;;;;;;20.74;51.36;97299.25;4942952;29;20055;-78
2022/07/11 10:53:33;;;;;;;1.73;1.42;;;;;;;20.75;50.92;97297.41;4940843;29;20051;-78
2022/07/11 10:56:13;;;;;;;2.28;1.30;;;;;;;20.74;51.14;97299.25;4940260;29;20415;-77
2022/07/11 10:59:12;;;;;;;1.10;1.05;;;;;;;20.75;51.12;97300.91;4940695;29;20510;-77
2022/07/11 11:02:10;;;;;;;1.55;1.45;;;;;;;20.74;50.91;97299.25;4939866;29;20115;-76
2022/07/11 11:04:46;;;;;;;1.20;1.10;;;;;;;20.74;51.32;97293.97;4929056;29;20054;-77
2022/07/11 11:07:37;;;;;;;2.30;1.13;;;;;;;20.73;51.00;97294.22;4941287;29;20139;-79
2022/07/11 11:10:21;;;;;;;1.40;1.30;;;;;;;20.71;50.68;97291.78;4939718;29;20154;-78
2022/07/11 11:13:11;;;;;;;1.27;1.10;;;;;;;20.73;51.21;97299.53;4925191;29;20570;-77
2022/07/11 11:15:43;;;;;;;1.77;1.20;;;;;;;20.74;50.77;97293.16;4938957;29;20047;-77
2022/07/11 11:18:44;;;;;;;1.23;1.13;;;;;;;20.76;50.85;97285.78;4940848;29;20059;-78
2022/07/11 11:21:15;;;;;;;1.40;1.30;;;;;;;20.78;50.73;97283.72;4877516;29;20527;-80
2022/07/11 11:23:45;;;;;;;1.42;1.20;;;;;;;20.79;50.66;97285.31;4929959;29;20058;-76
2022/07/11 11:26:18;;;;;;;2.08;1.58;;;;;;;20.81;50.93;97285.09;4940502;29;20498;-77
2022/07/11 11:28:56;;;;;;;1.48;1.30;;;;;;;20.82;50.79;97287.53;4940264;29;20051;-77
2022/07/11 11:31:26;;;;;;;2.35;2.03;;;;;;;20.84;50.91;97288.09;4940160;29;20111;-77
2022/07/11 11:33:54;;;;;;;1.40;1.23;;;;;;;20.88;50.63;97285.78;4939428;29;20098;-80
2022/07/11 11:36:24;;;;;;;1.13;1.10;;;;;;;20.89;49.31;97287.41;4939122;29;20056;-79
2022/07/11 11:38:52;;;;;;;2.60;1.13;;;;;;;20.89;49.49;97290.06;4942354;29;20465;-81
2022/07/11 11:41:23;;;;;;;0.80;0.80;;;;;;;20.92;49.56;97287.75;4937448;29;20086;-79
2022/07/11 11:43:52;;;;;;;2.58;1.23;;;;;;;20.97;49.39;97285.22;4937254;29;20086;-78
2022/07/11 11:46:19;;;;;;;1.30;1.20;;;;;;;21.02;49.27;97291.69;4941549;29;20058;-78
2022/07/11 11:48:48;;;;;;;1.75;0.90;;;;;;;21.06;49.08;97292.84;4940203;29;20075;-79
2022/07/11 11:51:18;;;;;;;1.30;1.20;;;;;;;21.10;48.63;97291.31;4939489;29;20470;-79
2022/07/11 11:53:48;;;;;;;1.75;1.17;;;;;;;21.13;48.92;97290.84;4939346;29;20614;-77
2022/07/11 11:56:17;;;;;;;1.15;1.10;;;;;;;21.16;48.73;97295.69;4937811;29;20126;-78
2022/07/11 11:58:45;;;;;;;1.33;1.23;;;;;;;21.17;49.20;97281.41;4941305;29;20052;-79